Terminal Aerodrome Forecast
Issued by NWS

Home | Current Version | Previous Version | Text Only | Print | Product List | Glossary On
Versions: 1 2 3 4 5 6 7 8 9 10 11 12 13 14 15 16 17 18 19 20 21 22 23 24 25
000
FTUS45 KBOU 162124 AAC
TAFAPA
TAF AMD
KAPA 162124Z 1621/1718 31006KT P6SM FEW007 SCT012 OVC020
     FM162200 28005KT P6SM VCSH SCT020 OVC040
     FM170000 23006KT P6SM SCT060 SCT220
     FM170400 17006KT P6SM FEW220
     FM171600 VRB04KT P6SM FEW220=

USA.gov is the U.S. government's official web portal to all federal, state and local government web resources and services.